METAR AND TAF INFORMATION
METAR FOR LPPT
ADDS - METARS form results

(1407 UTC 22 April 2018)
Data provider http://aviationweather.gov/adds/metars/
 
METAR text: LPPT 221400Z 06007KT 350V090 9999 FEW025 21/14 Q1013
Conditions at: LPPT (LISBON/PORTELA , PT) observed 1400 UTC 22 April 2018
Temperature: 21.0°C (70°F)
Dewpoint: 14.0°C (57°F) [RH = 64%]
Pressure (altimeter): 29.91 inches Hg (1013.0 mb)
Winds: from the ENE (60 degrees) at 8 MPH (7 knots; 3.6 m/s)
Visibility: 6 or more miles (10+ km)
Ceiling: at least 12,000 feet AGL
Clouds: few clouds at 2500 feet AGL
Weather: no significant weather observed at this time

METAR text: LPPT 221330Z 03006KT 340V070 9999 FEW028 20/13 Q1013
Conditions at: LPPT (LISBON/PORTELA , PT) observed 1330 UTC 22 April 2018
Temperature: 20.0°C (68°F)
Dewpoint: 13.0°C (55°F) [RH = 64%]
Pressure (altimeter): 29.91 inches Hg (1013.0 mb)
Winds: from the NNE (30 degrees) at 7 MPH (6 knots; 3.1 m/s)
Visibility: 6 or more miles (10+ km)
Ceiling: at least 12,000 feet AGL
Clouds: few clouds at 2800 feet AGL
Weather: no significant weather observed at this time

Forecast for: LPPT (LISBON/PORTELA , PT)
Text: TAF LPPT 221100Z 2212/2318 04012KT 9999 SCT025
Forecast period: 1200 to 1500 UTC 22 April 2018
Forecast type: FROM: standard forecast or significant change
Winds: from the NE (40 degrees) at 14 MPH (12 knots; 6.2 m/s)
Visibility: 6 or more miles (10+ km)
Clouds: scattered clouds at 2500 feet AGL
Weather: no significant weather forecast for this period
Forecast for: LPPT (LISBON/PORTELA , PT)
Text: TAF LPPT 221100Z 2212/2318 04012KT 9999 SCT025
Forecast period: 1200 to 1500 UTC 22 April 2018
Forecast type: FROM: standard forecast or significant change
Winds: from the NE (40 degrees) at 14 MPH (12 knots; 6.2 m/s)
Visibility: 6 or more miles (10+ km)
Clouds: scattered clouds at 2500 feet AGL
Weather: no significant weather forecast for this period
Forecast for: LPPT (LISBON/PORTELA , PT)
Text: TAF LPPT 221100Z 2212/2318 04012KT 9999 SCT025
Forecast period: 1200 UTC 22 April 2018 to 1800 UTC 23 April 2018
Forecast type: TEMPORARY: The following changes expected for less than half the time period
Visibility: 5 miles (8 km)
Ceiling: 2000 feet AGL
Clouds: broken clouds at 2000 feet AGL
few clouds at 3000 feet AGL
Weather: SHRA  (rain showers)
Forecast for: LPPT (LISBON/PORTELA , PT)
Text: TAF LPPT 221100Z 2212/2318 04012KT 9999 SCT025
Forecast period: 1200 UTC 22 April 2018 to 1800 UTC 23 April 2018
Forecast type: TEMPORARY: The following changes expected for less than half the time period
Visibility: 5 miles (8 km)
Ceiling: 2000 feet AGL
Clouds: broken clouds at 2000 feet AGL
few clouds at 3000 feet AGL
Weather: SHRA  (rain showers)
Forecast for: LPPT (LISBON/PORTELA , PT)
Text: TAF LPPT 221100Z 2212/2318 04012KT 9999 SCT025
Forecast period: 1200 to 2200 UTC 22 April 2018
Forecast type: TEMPORARY: The following changes expected for less than half the time period
Visibility: 1.86 miles (2.99 km)
Clouds: scattered clouds at 2000 feet AGL
Weather: TSRA TSGS  (rain associated with thunderstorm(s), small hail or graupel associated with thunderstorm(s))
Forecast for: LPPT (LISBON/PORTELA , PT)
Text: TAF LPPT 221100Z 2212/2318 04012KT 9999 SCT025
Forecast period: 1200 to 2200 UTC 22 April 2018
Forecast type: TEMPORARY: The following changes expected for less than half the time period
Visibility: 1.86 miles (2.99 km)
Clouds: scattered clouds at 2000 feet AGL
Weather: TSRA TSGS  (rain associated with thunderstorm(s), small hail or graupel associated with thunderstorm(s))
Forecast for: LPPT (LISBON/PORTELA , PT)
Text: TAF LPPT 221100Z 2212/2318 04012KT 9999 SCT025
Forecast period: 1500 to 2100 UTC 22 April 2018
Forecast type: BECOMING: Conditions expected to become as follows by 1800 UTC 22 April 2018
Winds: from the N (350 degrees) at 15 MPH (13 knots; 6.8 m/s)
Visibility: 6 or more miles (10+ km)
Clouds: scattered clouds at 2500 feet AGL
Weather: no significant weather forecast for this period
Forecast for: LPPT (LISBON/PORTELA , PT)
Text: TAF LPPT 221100Z 2212/2318 04012KT 9999 SCT025
Forecast period: 1500 to 2100 UTC 22 April 2018
Forecast type: BECOMING: Conditions expected to become as follows by 1800 UTC 22 April 2018
Winds: from the N (350 degrees) at 15 MPH (13 knots; 6.8 m/s)
Visibility: 6 or more miles (10+ km)
Clouds: scattered clouds at 2500 feet AGL
Weather: no significant weather forecast for this period
Forecast for: LPPT (LISBON/PORTELA , PT)
Text: TAF LPPT 221100Z 2212/2318 04012KT 9999 SCT025
Forecast period: 2100 UTC 22 April 2018 to 0600 UTC 23 April 2018
Forecast type: BECOMING: Conditions expected to become as follows by 0000 UTC 23 April 2018
Winds: variable direction winds at 3 MPH (3 knots; 1.6 m/s)
Visibility: 6 or more miles (10+ km)
Clouds: scattered clouds at 2500 feet AGL
Weather: no significant weather forecast for this period
Forecast for: LPPT (LISBON/PORTELA , PT)
Text: TAF LPPT 221100Z 2212/2318 04012KT 9999 SCT025
Forecast period: 2100 UTC 22 April 2018 to 0600 UTC 23 April 2018
Forecast type: BECOMING: Conditions expected to become as follows by 0000 UTC 23 April 2018
Winds: variable direction winds at 3 MPH (3 knots; 1.6 m/s)
Visibility: 6 or more miles (10+ km)
Clouds: scattered clouds at 2500 feet AGL
Weather: no significant weather forecast for this period
Forecast for: LPPT (LISBON/PORTELA , PT)
Text: TAF LPPT 221100Z 2212/2318 04012KT 9999 SCT025
Forecast period: 0600 to 1800 UTC 23 April 2018
Forecast type: BECOMING: Conditions expected to become as follows by 0900 UTC 23 April 2018
Winds: from the NE (50 degrees) at 9 MPH (8 knots; 4.2 m/s)
Visibility: 6 or more miles (10+ km)
Clouds: scattered clouds at 2500 feet AGL
Weather: no significant weather forecast for this period
Forecast for: LPPT (LISBON/PORTELA , PT)
Text: TAF LPPT 221100Z 2212/2318 04012KT 9999 SCT025
Forecast period: 0600 to 1800 UTC 23 April 2018
Forecast type: BECOMING: Conditions expected to become as follows by 0900 UTC 23 April 2018
Winds: from the NE (50 degrees) at 9 MPH (8 knots; 4.2 m/s)
Visibility: 6 or more miles (10+ km)
Clouds: scattered clouds at 2500 feet AGL
Weather: no significant weather forecast for this period

 AIRPORT MAP

 RUNWAY INFORMATION
Runway 03 Runway length 12484 ft Runway width 148 ft
Runway elevation 331 ft Runway displaced threshold 296 ft Runway heading 22
Runway 21 Runway length 12484 ft Runway width 148 ft
Runway elevation 347 ft Runway displaced threshold 1969 ft Runway heading 202
Runway 17 Runway length 7874 ft Runway width 148 ft
Runway elevation 374 ft Runway displaced threshold 0 ft Runway heading 168
Runway 35 Runway length 7874 ft Runway width 148 ft
Runway elevation 332 ft Runway displaced threshold 492 ft Runway heading 348

 AIRPORT FREQUENCIES
Type APP Name APP Frequency 119.1 MHZ
Type ATIS Name ATIS Frequency 124.15 MHZ
Type CLD Name CLD Frequency 118.95 MHZ
Type GND Name GND Frequency 121.75 MHZ
Type INFO Name INFO Frequency 123.75 MHZ
Type RDO Name RDO Frequency 127.9 MHZ
Type TWR Name TWR Frequency 118.1 MHZ

 AIRPORT NEAR NAVIGATION AIDS
Type NDB Name Caparica Frequency 389 KHZ
Type NDB Name Arruda Frequency 382 KHZ
Type VOR-DME Name Lisboa Frequency 114800 KHZ



Powered by Virtual Airlines Manager [v2.6.2]